Aérodrome :







RETROUVEZ-NOUS SUR...

 
LOGIN :

S'inscrire | Disclaimer

   EN    FR    IT 

 









Légende :    VFR   VFR Marginal   IFR   IFR Intensif   IFR Très Intensif
Visi : 
Plafond : 
>= 8 km
>= 3000ft
5 à 8 km
1000 à 3000 ft
1500m à 5 km
500 à 1000 ft
800 à 1500m
200 à 500 ft
< 800m
< 200 ft
Symboles :   Orages  Brouillard  Fortes neiges  Fortes précipitations  Vent > 20 kt






- Altitude de l'aérodrome : 1442 ft
- Code IATA : ZUM


CZUM - Churchill Falls

DERNIER METAR :
  • 190412Z AUTO 33004KT 9SM FEW007 SCT021 BKN050 OVC086 15/14 A2965 RMK ICE MISG SLP049 DENSITY ALT 2100FT

METARs EXPIRÉS :
  • 190400Z AUTO 33004KT 9SM SCT021 SCT045 BKN049 OVC086 15/14 A2965 RMK SLP046 DENSITY ALT 2100FT
  • 190300Z AUTO 36005KT 9SM BKN071 OVC086 15/13 A2964 RMK SLP045 DENSITY ALT 2100FT
  • 190200Z AUTO 03004KT 9SM OVC081 15/13 A2965 RMK SLP049 DENSITY ALT 2100FT
  • 190100Z AUTO 05005KT 9SM BKN071 OVC094 15/13 A2966 RMK SLP051 DENSITY ALT 2200FT
  • 190000Z AUTO 05007KT 360V070 9SM OVC081 16/14 A2967 RMK SLP054 DENSITY ALT 2200FT

TAF TAF CZUM
Valide du 19 à 02h jusqu'au 19 à 14h UTC


190140Z 1902/1914 04008KT P6SM SCT020 OVC080
TEMPO 1902/1907 5SM -SHRA BR BKN020 OVC080
BECMG 1902/1904 36005KT
FM190700 34005KT P6SM SCT006 BKN040
PROB30 1907/1912 2SM BR BKN006 OVC040 RMK FCST BASED ON AUTO OBS. NXT FCST BY 190800Z
FIR CZQX / Amérique du Nord



MET'MAP, la Météo Aéronautique d'un coup d'oeil ! - Copyright ORBIFLY Décembre 2007 - Disclaimer

ORBIFLY MET'MAP TEAM :

Programmation & Développement : Alexandra Zaïnal
Sur une idée originale de : Baudouin d'Aumeries
Soutien technique & logistique : Manuel Goepfert
Assistance : Marc-Olivier Méhu




SOURCES & CREDITS :

   NOAA